createdAt,value
2019-03-01T00:01:20.770Z,5.80
2019-03-01T00:03:55.354Z,5.80
2019-03-01T00:06:32.437Z,5.80
2019-03-01T00:09:22.986Z,5.80
2019-03-01T00:12:27.390Z,5.80
2019-03-01T00:14:58.937Z,5.90
2019-03-01T00:17:33.329Z,5.80
2019-03-01T00:20:25.602Z,5.80
2019-03-01T00:22:57.153Z,5.90
2019-03-01T00:25:37.515Z,5.90
2019-03-01T00:28:33.205Z,5.90
2019-03-01T00:31:16.255Z,5.80
2019-03-01T00:34:11.163Z,5.80
2019-03-01T00:36:51.301Z,5.80
2019-03-01T00:39:31.461Z,5.80
2019-03-01T00:42:36.083Z,5.80
2019-03-01T00:45:05.980Z,5.80
2019-03-01T00:47:34.422Z,5.80
2019-03-01T00:50:02.972Z,5.80
2019-03-01T00:52:31.441Z,5.80
2019-03-01T00:54:59.877Z,5.80
2019-03-01T00:57:28.466Z,5.80
2019-03-01T00:59:56.968Z,5.80
2019-03-01T01:02:25.414Z,5.80
2019-03-01T01:04:53.965Z,5.80
2019-03-01T01:07:22.455Z,5.80
2019-03-01T01:09:50.902Z,5.80
2019-03-01T01:12:19.353Z,5.80
2019-03-01T01:14:47.861Z,5.70
2019-03-01T01:17:16.314Z,5.80
2019-03-01T01:19:44.758Z,5.80
2019-03-01T01:22:13.201Z,5.80
2019-03-01T01:24:41.813Z,5.80
2019-03-01T01:27:10.249Z,5.80
2019-03-01T01:29:38.684Z,5.70
2019-03-01T01:32:07.132Z,5.70
2019-03-01T01:34:35.585Z,5.70
2019-03-01T01:37:04.120Z,5.60
2019-03-01T01:39:32.628Z,5.60
2019-03-01T01:42:01.075Z,5.60
2019-03-01T01:44:29.506Z,5.60
2019-03-01T01:46:57.958Z,5.60
2019-03-01T01:49:26.390Z,5.60
2019-03-01T01:51:54.838Z,5.60
2019-03-01T01:54:23.313Z,5.60
2019-03-01T01:56:51.753Z,5.60
2019-03-01T01:59:20.214Z,5.60
2019-03-01T02:01:48.758Z,5.60
2019-03-01T02:04:17.212Z,5.70
2019-03-01T02:06:45.710Z,5.70
2019-03-01T02:09:23.882Z,5.70
2019-03-01T02:11:52.350Z,5.70
2019-03-01T02:14:20.884Z,5.70
2019-03-01T02:16:49.377Z,5.60
2019-03-01T02:19:17.849Z,5.70
2019-03-01T02:21:46.292Z,5.60
2019-03-01T02:24:14.751Z,5.60
2019-03-01T02:26:43.192Z,5.60
2019-03-01T02:29:11.681Z,5.60
2019-03-01T02:31:42.858Z,5.60
2019-03-01T02:34:11.312Z,5.50
2019-03-01T02:36:39.755Z,5.50
2019-03-01T02:39:08.284Z,5.40
2019-03-01T02:41:36.714Z,5.40
2019-03-01T02:44:05.237Z,5.30
2019-03-01T02:46:33.692Z,5.30
2019-03-01T02:49:02.250Z,5.30
2019-03-01T02:51:30.757Z,5.30
2019-03-01T02:53:59.188Z,5.20
2019-03-01T02:56:27.699Z,5.20
2019-03-01T02:58:56.132Z,5.20
2019-03-01T03:01:24.575Z,5.20
2019-03-01T03:03:53.097Z,5.20
2019-03-01T03:06:25.881Z,5.10
2019-03-01T03:08:54.295Z,5.10
2019-03-01T03:11:22.761Z,5.10
2019-03-01T03:13:51.220Z,5.10
2019-03-01T03:16:20.186Z,5.10
2019-03-01T03:18:48.649Z,5.10
2019-03-01T03:21:17.087Z,5.10
2019-03-01T03:23:45.532Z,5.10
2019-03-01T03:26:13.982Z,5.10
2019-03-01T03:28:42.405Z,5.10
2019-03-01T03:31:10.874Z,5.10
2019-03-01T03:33:39.382Z,5.10
2019-03-01T03:36:07.861Z,5.10
2019-03-01T03:38:36.351Z,5.10
2019-03-01T03:41:04.789Z,5.10
2019-03-01T03:43:33.222Z,5.00
2019-03-01T03:46:01.682Z,5.00
2019-03-01T03:48:30.127Z,5.10
2019-03-01T03:50:58.629Z,5.10
2019-03-01T03:53:27.075Z,5.10
2019-03-01T03:55:55.517Z,5.20
2019-03-01T03:58:23.955Z,5.20
2019-03-01T04:00:52.454Z,5.20
2019-03-01T04:03:20.991Z,5.20
2019-03-01T04:05:49.538Z,5.20
2019-03-01T04:08:17.993Z,5.30
2019-03-01T04:10:46.441Z,5.30
2019-03-01T04:13:16.787Z,5.30
2019-03-01T04:15:45.171Z,5.30
2019-03-01T04:18:13.692Z,5.30
2019-03-01T04:20:42.158Z,5.30
2019-03-01T04:23:10.590Z,5.30
2019-03-01T04:25:39.030Z,5.30
2019-03-01T04:28:07.498Z,5.30
2019-03-01T04:30:35.990Z,5.30
2019-03-01T04:33:04.447Z,5.30
2019-03-01T04:35:32.878Z,5.40
2019-03-01T04:38:01.397Z,5.40
2019-03-01T04:40:29.850Z,5.30
2019-03-01T04:42:58.310Z,5.40
2019-03-01T04:45:26.761Z,5.40
2019-03-01T04:47:55.270Z,5.30
2019-03-01T04:50:23.734Z,5.40
2019-03-01T04:52:52.265Z,5.30
2019-03-01T04:55:23.240Z,5.40
2019-03-01T04:57:51.701Z,5.40
2019-03-01T05:00:22.173Z,5.40
2019-03-01T05:02:50.781Z,5.40
2019-03-01T05:05:19.359Z,5.30
2019-03-01T05:07:47.990Z,5.30
2019-03-01T05:10:16.558Z,5.20
2019-03-01T05:12:45.018Z,5.20
2019-03-01T05:15:18.618Z,5.20
2019-03-01T05:17:47.064Z,5.20
2019-03-01T05:20:15.583Z,5.20
2019-03-01T05:22:44.044Z,5.20
2019-03-01T05:25:12.610Z,5.20
2019-03-01T05:27:41.099Z,5.20
2019-03-01T05:30:12.342Z,5.20
2019-03-01T05:32:40.787Z,5.20
2019-03-01T05:35:10.019Z,5.20
2019-03-01T05:37:38.445Z,5.20
2019-03-01T05:40:12.214Z,5.30
2019-03-01T05:42:40.646Z,5.30
2019-03-01T05:45:23.135Z,5.30
2019-03-01T05:47:51.869Z,5.30
2019-03-01T05:50:20.298Z,5.30
2019-03-01T05:52:48.744Z,5.30
2019-03-01T05:55:17.373Z,5.30
2019-03-01T05:58:21.758Z,5.20
2019-03-01T06:00:51.338Z,5.30
2019-03-01T06:03:39.127Z,5.30
2019-03-01T06:06:07.862Z,5.30
2019-03-01T06:08:42.066Z,5.30
2019-03-01T06:11:13.580Z,5.30
2019-03-01T06:13:53.961Z,5.30
2019-03-01T06:16:40.270Z,5.40
2019-03-01T06:19:23.691Z,5.40
2019-03-01T06:22:11.575Z,5.30
2019-03-01T06:24:57.767Z,5.30
2019-03-01T06:27:45.734Z,5.30
2019-03-01T06:30:35.320Z,5.20
2019-03-01T06:33:27.500Z,5.30
2019-03-01T06:36:04.465Z,5.30
2019-03-01T06:39:01.114Z,5.30
2019-03-01T06:42:03.335Z,5.30
2019-03-01T06:44:50.995Z,5.30
2019-03-01T06:47:45.105Z,5.30
2019-03-01T06:50:17.574Z,5.30
2019-03-01T06:52:46.070Z,5.40
2019-03-01T06:55:29.576Z,5.40
2019-03-01T06:57:58.073Z,5.40
2019-03-01T07:00:27.037Z,5.40
2019-03-01T07:02:59.848Z,5.40
2019-03-01T07:05:28.306Z,5.40
2019-03-01T07:07:56.837Z,5.50
2019-03-01T07:10:25.305Z,5.60
2019-03-01T07:12:53.765Z,5.60
2019-03-01T07:15:22.220Z,5.70
2019-03-01T07:17:50.648Z,5.70
2019-03-01T07:20:19.110Z,5.60
2019-03-01T07:22:47.534Z,5.50
2019-03-01T07:25:15.963Z,5.50
2019-03-01T07:27:44.425Z,5.60
2019-03-01T07:30:12.942Z,5.50
2019-03-01T07:32:41.391Z,5.50
2019-03-01T07:35:10.218Z,5.50
2019-03-01T07:37:38.663Z,5.50
2019-03-01T07:40:09.616Z,5.50
2019-03-01T07:42:38.050Z,5.50
2019-03-01T07:45:14.275Z,5.50
2019-03-01T07:47:42.722Z,5.50
2019-03-01T07:50:13.436Z,5.50
2019-03-01T07:52:42.045Z,5.50
2019-03-01T07:55:11.415Z,5.50
2019-03-01T07:57:39.861Z,5.50
2019-03-01T08:00:15.863Z,5.60
2019-03-01T08:02:45.722Z,5.60
2019-03-01T08:05:16.396Z,5.60
2019-03-01T08:07:55.438Z,5.50
2019-03-01T08:10:20.652Z,5.50
2019-03-01T08:12:47.469Z,5.50
2019-03-01T08:15:16.690Z,5.60
2019-03-01T08:17:45.144Z,5.60
2019-03-01T08:20:15.291Z,5.60
2019-03-01T08:22:48.785Z,5.60
2019-03-01T08:25:13.964Z,5.60
2019-03-01T08:27:46.402Z,5.60
2019-03-01T08:30:18.751Z,5.60
2019-03-01T08:32:47.200Z,5.60
2019-03-01T08:35:19.183Z,5.70
2019-03-01T08:37:49.872Z,5.70
2019-03-01T08:40:19.391Z,5.80
2019-03-01T08:42:47.841Z,5.80
2019-03-01T08:45:20.166Z,5.70
2019-03-01T08:47:49.094Z,5.70
2019-03-01T08:50:17.826Z,5.60
2019-03-01T08:52:46.715Z,5.70
2019-03-01T08:55:29.556Z,5.60
2019-03-01T08:57:59.738Z,5.60
2019-03-01T09:00:36.738Z,5.60
2019-03-01T09:03:11.416Z,5.60
2019-03-01T09:05:39.847Z,5.60
2019-03-01T09:08:08.284Z,5.60
2019-03-01T09:10:36.789Z,5.70
2019-03-01T09:13:05.246Z,5.70
2019-03-01T09:15:33.769Z,5.70
2019-03-01T09:18:02.217Z,5.60
2019-03-01T09:20:32.535Z,5.60
2019-03-01T09:23:04.964Z,5.70
2019-03-01T09:25:30.998Z,5.70
2019-03-01T09:27:59.445Z,5.70
2019-03-01T09:30:27.919Z,5.70
2019-03-01T09:32:56.351Z,5.70
2019-03-01T09:35:26.430Z,5.80
2019-03-01T09:37:54.932Z,5.80
2019-03-01T09:40:25.590Z,5.80
2019-03-01T09:42:53.522Z,5.80
2019-03-01T09:45:21.991Z,5.90
2019-03-01T09:47:50.563Z,5.90
2019-03-01T09:50:19.195Z,6.00
2019-03-01T09:52:47.634Z,5.90
2019-03-01T09:55:16.091Z,5.90
2019-03-01T09:57:44.613Z,5.90
2019-03-01T10:00:29.714Z,5.90
2019-03-01T10:03:00.090Z,5.90
2019-03-01T10:05:28.543Z,5.90
2019-03-01T10:07:57.025Z,5.90
2019-03-01T10:10:30.778Z,6.00
2019-03-01T10:12:59.227Z,6.00
2019-03-01T10:15:27.955Z,5.90
2019-03-01T10:17:56.456Z,5.90
2019-03-01T10:20:26.117Z,5.90
2019-03-01T10:22:54.639Z,5.90
2019-03-01T10:25:23.145Z,5.90
2019-03-01T10:27:51.584Z,6.00
2019-03-01T10:30:25.208Z,5.90
2019-03-01T10:32:53.692Z,5.90
2019-03-01T10:35:22.195Z,5.90
2019-03-01T10:37:50.786Z,5.90
2019-03-01T10:40:26.152Z,5.90
2019-03-01T10:42:54.622Z,6.00
2019-03-01T10:45:30.238Z,6.10
2019-03-01T10:47:58.838Z,6.20
2019-03-01T10:50:27.361Z,6.20
2019-03-01T10:52:55.821Z,6.10
2019-03-01T10:55:24.258Z,6.10
2019-03-01T10:57:52.730Z,6.10
2019-03-01T11:00:30.779Z,6.00
2019-03-01T11:02:59.316Z,6.00
2019-03-01T11:05:28.131Z,6.10
2019-03-01T11:07:57.036Z,6.10
2019-03-01T11:10:38.715Z,6.00
2019-03-01T11:13:09.435Z,6.00
2019-03-01T11:15:38.011Z,6.00
2019-03-01T11:18:06.476Z,6.00
2019-03-01T11:20:34.914Z,6.00
2019-03-01T11:23:03.354Z,6.00
2019-03-01T11:25:31.806Z,6.00
2019-03-01T11:28:00.314Z,6.00
2019-03-01T11:30:32.755Z,6.00
2019-03-01T11:33:01.247Z,6.10
2019-03-01T11:35:29.762Z,6.10
2019-03-01T11:37:58.250Z,6.00
2019-03-01T11:40:34.883Z,6.00
2019-03-01T11:43:03.976Z,5.90
2019-03-01T11:45:32.489Z,6.00
2019-03-01T11:48:00.943Z,5.90
2019-03-01T11:50:29.458Z,5.90
2019-03-01T11:52:57.916Z,5.90
2019-03-01T11:55:26.365Z,5.90
2019-03-01T11:57:54.840Z,5.80
2019-03-01T12:00:25.600Z,5.80
2019-03-01T12:02:54.105Z,5.70
2019-03-01T12:05:22.698Z,5.70
2019-03-01T12:07:51.206Z,5.70
2019-03-01T12:10:31.989Z,5.60
2019-03-01T12:13:00.505Z,5.60
2019-03-01T12:15:29.094Z,5.60
2019-03-01T12:17:57.532Z,5.60
2019-03-01T12:20:32.919Z,5.70
2019-03-01T12:23:01.409Z,5.70
2019-03-01T12:25:30.221Z,5.70
2019-03-01T12:27:58.662Z,5.70
2019-03-01T12:30:27.383Z,5.70
2019-03-01T12:32:55.807Z,5.70
2019-03-01T12:35:24.258Z,5.70
2019-03-01T12:37:52.780Z,5.70
2019-03-01T12:40:28.267Z,5.60
2019-03-01T12:42:56.841Z,5.60
2019-03-01T12:45:25.359Z,5.60
2019-03-01T12:47:53.814Z,5.50
2019-03-01T12:50:22.267Z,5.50
2019-03-01T12:52:50.747Z,5.50
2019-03-01T12:55:26.928Z,5.40
2019-03-01T12:57:55.365Z,5.50
2019-03-01T13:00:34.302Z,5.50
2019-03-01T13:03:05.328Z,5.50
2019-03-01T13:05:32.913Z,5.50
2019-03-01T13:08:01.360Z,5.50
2019-03-01T13:10:40.193Z,5.50
2019-03-01T13:13:08.274Z,5.50
2019-03-01T13:15:37.141Z,5.60
2019-03-01T13:18:05.659Z,5.50
2019-03-01T13:20:37.025Z,5.50
2019-03-01T13:23:04.876Z,5.50
2019-03-01T13:25:34.595Z,5.50
2019-03-01T13:28:03.129Z,5.50
2019-03-01T13:30:32.590Z,5.40
2019-03-01T13:33:02.615Z,5.30
2019-03-01T13:35:31.944Z,5.30
2019-03-01T13:38:00.391Z,5.30
2019-03-01T13:40:28.834Z,5.30
2019-03-01T13:46:26.366Z,5.30
2019-03-01T13:48:56.116Z,5.30
2019-03-01T13:51:24.570Z,5.30
2019-03-01T13:53:53.068Z,5.20
2019-03-01T13:56:21.585Z,5.20
2019-03-01T13:58:50.036Z,5.30
2019-03-01T14:01:18.479Z,5.30
2019-03-01T14:03:47.011Z,5.20
2019-03-01T14:06:16.043Z,5.20
2019-03-01T14:08:44.590Z,5.20
2019-03-01T14:11:15.210Z,5.10
2019-03-01T14:13:43.241Z,5.10
2019-03-01T14:16:11.706Z,5.10
2019-03-01T14:18:40.143Z,5.10
2019-03-01T14:21:10.184Z,5.20
2019-03-01T14:23:38.710Z,5.10
2019-03-01T14:26:07.180Z,4.90
2019-03-01T14:28:38.052Z,4.90
2019-03-01T14:31:07.462Z,4.80
2019-03-01T14:33:36.494Z,4.70
2019-03-01T14:36:04.926Z,4.70
2019-03-01T14:38:33.390Z,4.70
2019-03-01T14:41:01.838Z,4.70
2019-03-01T14:43:30.386Z,4.70
2019-03-01T14:45:58.831Z,4.60
2019-03-01T14:48:27.290Z,4.60
2019-03-01T14:50:55.822Z,4.60
2019-03-01T14:53:24.253Z,4.60
2019-03-01T14:55:58.826Z,4.50
2019-03-01T14:58:47.073Z,4.40
2019-03-01T15:01:18.642Z,4.40
2019-03-01T15:03:49.869Z,4.40
2019-03-01T15:06:19.250Z,4.40
2019-03-01T15:08:47.487Z,4.40
2019-03-01T15:11:17.073Z,4.40
2019-03-01T15:13:45.758Z,4.40
2019-03-01T15:16:14.214Z,4.40
2019-03-01T15:18:43.390Z,4.30
2019-03-01T15:21:12.994Z,4.30
2019-03-01T15:23:41.435Z,4.30
2019-03-01T15:26:09.981Z,4.20
2019-03-01T15:28:44.114Z,4.20
2019-03-01T15:31:12.655Z,4.20
2019-03-01T15:33:46.520Z,4.10
2019-03-01T15:36:13.688Z,4.00
2019-03-01T15:38:41.517Z,4.00
2019-03-01T15:41:10.109Z,4.00
2019-03-01T15:43:38.582Z,3.90
2019-03-01T15:46:07.198Z,3.90
2019-03-01T15:48:38.081Z,3.90
2019-03-01T15:51:06.786Z,3.80
2019-03-01T15:53:35.354Z,3.80
2019-03-01T15:56:05.970Z,3.70
2019-03-01T15:58:34.197Z,3.80
2019-03-01T16:01:05.851Z,3.80
2019-03-01T16:03:32.993Z,3.80
2019-03-01T16:06:01.479Z,3.80
2019-03-01T16:08:29.947Z,3.80
2019-03-01T16:10:58.504Z,3.70
2019-03-01T16:13:26.998Z,3.70
2019-03-01T16:15:55.524Z,3.70
2019-03-01T16:18:24.026Z,3.50
2019-03-01T16:20:52.507Z,3.50
2019-03-01T16:23:20.970Z,3.40
2019-03-01T16:25:49.509Z,3.30
2019-03-01T16:28:17.967Z,3.30
2019-03-01T16:30:49.705Z,3.30
2019-03-01T16:33:16.947Z,3.20
2019-03-01T16:35:48.444Z,3.20
2019-03-01T16:38:15.615Z,3.20
2019-03-01T16:40:44.366Z,3.10
2019-03-01T16:43:12.878Z,3.10
2019-03-01T16:45:41.379Z,3.10
2019-03-01T16:48:09.894Z,3.10
2019-03-01T16:50:40.721Z,3.00
2019-03-01T16:53:09.465Z,3.00
2019-03-01T16:55:37.913Z,3.00
2019-03-01T16:58:07.251Z,2.90
2019-03-01T17:00:35.980Z,2.90
2019-03-01T17:03:09.767Z,2.90
2019-03-01T17:05:38.779Z,2.90
2019-03-01T17:08:08.048Z,2.90
2019-03-01T17:10:36.488Z,2.90
2019-03-01T17:13:04.954Z,2.90
2019-03-01T17:15:33.393Z,2.80
2019-03-01T17:18:01.893Z,2.80
2019-03-01T17:20:30.420Z,2.80
2019-03-01T17:23:03.156Z,2.80
2019-03-01T17:25:31.450Z,2.80
2019-03-01T17:27:59.931Z,2.70
2019-03-01T17:30:28.434Z,2.80
2019-03-01T17:32:56.881Z,2.70
2019-03-01T17:35:25.360Z,2.70
2019-03-01T17:37:53.845Z,2.70
2019-03-01T17:40:22.407Z,2.70
2019-03-01T17:42:53.254Z,2.70
2019-03-01T17:45:22.302Z,2.70
2019-03-01T17:47:50.745Z,2.70
2019-03-01T17:50:19.219Z,2.70
2019-03-01T17:52:47.725Z,2.70
2019-03-01T17:55:24.417Z,2.60
2019-03-01T17:57:53.162Z,2.60
2019-03-01T18:00:38.988Z,2.60
2019-03-01T18:03:07.518Z,2.50
2019-03-01T18:05:40.220Z,2.50
2019-03-01T18:08:07.097Z,2.50
2019-03-01T18:10:36.350Z,2.50
2019-03-01T18:13:04.970Z,2.40
2019-03-01T18:15:33.658Z,2.50
2019-03-01T18:18:02.097Z,2.40
2019-03-01T18:20:33.785Z,2.30
2019-03-01T18:23:02.355Z,2.40
2019-03-01T18:25:30.965Z,2.30
2019-03-01T18:27:59.474Z,2.30
2019-03-01T18:30:32.061Z,2.40
2019-03-01T18:33:00.536Z,2.40
2019-03-01T18:35:29.078Z,2.30
2019-03-01T18:37:57.538Z,2.30
2019-03-01T18:40:26.045Z,2.30
2019-03-01T18:42:54.516Z,2.30
2019-03-01T18:45:25.236Z,2.30
2019-03-01T18:47:53.685Z,2.30
2019-03-01T18:50:38.883Z,2.20
2019-03-01T18:53:07.368Z,2.20
2019-03-01T18:55:35.860Z,2.10
2019-03-01T18:58:04.398Z,2.10
2019-03-01T19:00:45.749Z,2.10
2019-03-01T19:03:14.481Z,2.20
2019-03-01T19:05:42.920Z,2.10
2019-03-01T19:08:11.406Z,2.00
2019-03-01T19:10:39.910Z,2.00
2019-03-01T19:13:08.374Z,2.10
2019-03-01T19:15:36.826Z,2.10
2019-03-01T19:18:05.797Z,2.00
2019-03-01T19:20:47.968Z,2.00
2019-03-01T19:23:16.448Z,2.00
2019-03-01T19:25:44.893Z,1.90
2019-03-01T19:28:13.368Z,1.90
2019-03-01T19:30:41.874Z,1.90
2019-03-01T19:33:10.403Z,1.90
2019-03-01T19:35:38.881Z,1.90
2019-03-01T19:38:07.347Z,1.90
2019-03-01T19:40:35.813Z,1.90
2019-03-01T19:43:06.948Z,1.80
2019-03-01T19:45:37.603Z,1.80
2019-03-01T19:48:05.530Z,1.80
2019-03-01T19:50:34.039Z,1.80
2019-03-01T19:53:02.526Z,1.70
2019-03-01T19:55:30.979Z,1.70
2019-03-01T19:57:59.448Z,1.70
2019-03-01T20:00:29.251Z,1.80
2019-03-01T20:02:57.788Z,1.70
2019-03-01T20:05:35.694Z,1.70
2019-03-01T20:08:04.223Z,1.70
2019-03-01T20:10:32.711Z,1.60
2019-03-01T20:13:01.486Z,1.60
2019-03-01T20:15:30.762Z,1.70
2019-03-01T20:17:59.350Z,1.60
2019-03-01T20:20:29.995Z,1.60
2019-03-01T20:22:59.002Z,1.50
2019-03-01T20:25:27.514Z,1.50
2019-03-01T20:27:55.945Z,1.40
2019-03-01T20:30:32.107Z,1.40
2019-03-01T20:33:00.546Z,1.40
2019-03-01T20:35:28.990Z,1.40
2019-03-01T20:38:00.390Z,1.40
2019-03-01T20:40:28.350Z,1.40
2019-03-01T20:43:01.320Z,1.40
2019-03-01T20:45:38.482Z,1.30
2019-03-01T20:48:07.041Z,1.30
2019-03-01T20:50:36.559Z,1.30
2019-03-01T20:53:05.236Z,1.30
2019-03-01T20:55:37.030Z,1.30
2019-03-01T20:58:04.352Z,1.30
2019-03-01T21:00:33.005Z,1.30
2019-03-01T21:03:01.429Z,1.30
2019-03-01T21:05:30.591Z,1.30
2019-03-01T21:07:59.201Z,1.20
2019-03-01T21:10:29.202Z,1.20
2019-03-01T21:12:57.642Z,1.20
2019-03-01T21:15:26.185Z,1.20
2019-03-01T21:17:56.964Z,1.20
2019-03-01T21:20:25.016Z,1.20
2019-03-01T21:22:53.532Z,1.10
2019-03-01T21:25:23.091Z,1.10
2019-03-01T21:27:51.615Z,1.20
2019-03-01T21:30:24.100Z,1.20
2019-03-01T21:32:52.683Z,1.20
2019-03-01T21:35:21.223Z,1.20
2019-03-01T21:37:49.747Z,1.20
2019-03-01T21:40:18.228Z,1.20
2019-03-01T21:42:46.752Z,1.20
2019-03-01T21:45:21.581Z,1.10
2019-03-01T21:47:49.748Z,1.10
2019-03-01T21:50:18.220Z,1.10
2019-03-01T21:52:46.694Z,1.10
2019-03-01T21:55:16.631Z,1.20
2019-03-01T21:57:45.861Z,1.20
2019-03-01T22:00:18.320Z,1.20
2019-03-01T22:02:48.805Z,1.10
2019-03-01T22:05:17.025Z,1.10
2019-03-01T22:07:45.479Z,1.20
2019-03-01T22:10:15.566Z,1.20
2019-03-01T22:12:45.717Z,1.10
2019-03-01T22:15:16.911Z,1.10
2019-03-01T22:17:48.432Z,1.10
2019-03-01T22:20:15.693Z,1.10
2019-03-01T22:22:44.181Z,1.10
2019-03-01T22:25:14.593Z,1.10
2019-03-01T22:27:44.203Z,1.20
2019-03-01T22:30:15.373Z,1.10
2019-03-01T22:32:45.399Z,1.10
2019-03-01T22:35:14.071Z,1.10
2019-03-01T22:37:42.575Z,1.10
2019-03-01T22:40:11.738Z,1.00
2019-03-01T22:42:40.314Z,1.00
2019-03-01T22:45:13.583Z,1.00
2019-03-01T22:47:41.754Z,1.00
2019-03-01T22:50:12.725Z,1.10
2019-03-01T22:52:41.171Z,1.10
2019-03-01T22:55:11.761Z,1.10
2019-03-01T22:57:40.221Z,1.10
2019-03-01T23:00:47.216Z,1.20
2019-03-01T23:03:18.997Z,1.20
2019-03-01T23:05:46.913Z,1.10
2019-03-01T23:08:15.419Z,1.10
2019-03-01T23:10:43.883Z,1.10
2019-03-01T23:13:12.369Z,1.10
2019-03-01T23:15:43.356Z,1.10
2019-03-01T23:18:11.063Z,1.10
2019-03-01T23:20:39.506Z,1.00
2019-03-01T23:23:07.967Z,1.00
2019-03-01T23:25:36.419Z,1.00
2019-03-01T23:28:08.141Z,1.00
2019-03-01T23:30:35.026Z,1.00
2019-03-01T23:33:03.482Z,1.00
2019-03-01T23:35:31.937Z,1.00
2019-03-01T23:38:00.447Z,1.00
2019-03-01T23:40:29.114Z,1.00
2019-03-01T23:42:57.639Z,1.00
2019-03-01T23:45:26.071Z,1.10
2019-03-01T23:47:54.570Z,1.10
2019-03-01T23:50:23.001Z,1.10
2019-03-01T23:52:54.902Z,1.00
2019-03-01T23:55:21.681Z,1.00
2019-03-01T23:57:50.132Z,1.00
